Time;durP1;ratioP1;P1;durP2;ratioP2;P2;SDS_P1;SDS_P2;PMS_P1;PMS_P2;Temp;Humidity;BMP_temperature;BMP_pressure;BME280_temperature;BME280_humidity;BME280_pressure;Samples;Min_cycle;Max_cycle;Signal;HPM_P1;HPM_P2
2021/07/28 00:01:26;;;;;;;;;;;28.50;93.00;;;;;;5087991;28;19911;-46
2021/07/28 00:03:52;;;;;;;;;;;28.50;93.10;;;;;;5105480;28;20100;-51
2021/07/28 00:06:21;;;;;;;;;;;28.40;93.10;;;;;;5086611;28;19910;-46
2021/07/28 00:08:48;;;;;;;;;;;28.40;93.00;;;;;;5105374;28;19904;-47
2021/07/28 00:11:15;;;;;;;;;;;28.40;93.10;;;;;;5070538;28;19904;-45
2021/07/28 00:13:44;;;;;;;;;;;28.30;92.70;;;;;;5105549;28;19911;-46
2021/07/28 00:16:13;;;;;;;;;;;28.20;92.60;;;;;;5105361;28;19904;-46
2021/07/28 00:24:13;;;;;;;;;;;28.00;93.50;;;;;;5089728;28;20215;-46
2021/07/28 00:26:39;;;;;;;;;;;27.90;93.60;;;;;;5105278;28;20088;-44
2021/07/28 00:29:06;;;;;;;;;;;27.80;93.60;;;;;;5105222;28;19911;-45
2021/07/28 00:31:32;;;;;;;;;;;27.80;93.70;;;;;;5105028;28;20077;-48
2021/07/28 00:33:58;;;;;;;;;;;27.80;93.90;;;;;;5104676;28;19930;-46
2021/07/28 00:36:26;;;;;;;;;;;27.80;93.80;;;;;;5069902;28;19926;-46
2021/07/28 00:38:52;;;;;;;;;;;27.70;93.90;;;;;;5069908;28;19919;-51
2021/07/28 00:41:21;;;;;;;;;;;27.70;93.90;;;;;;5105043;28;19979;-42
2021/07/28 00:43:47;;;;;;;;;;;27.60;93.80;;;;;;5104924;28;19908;-42
2021/07/28 00:46:13;;;;;;;;;;;27.60;94.00;;;;;;5084367;28;19908;-43
2021/07/28 00:48:44;;;;;;;;;;;27.60;94.00;;;;;;5104611;28;19900;-47
2021/07/28 00:51:11;;;;;;;;;;;27.50;94.00;;;;;;5086972;28;19908;-45
2021/07/28 00:53:43;;;;;;;;;;;27.50;94.10;;;;;;5104269;28;20204;-45
2021/07/28 00:56:10;;;;;;;;;;;27.50;94.00;;;;;;5087556;28;19908;-46
2021/07/28 00:58:37;;;;;;;;;;;27.40;94.00;;;;;;5086409;28;19936;-43
2021/07/28 01:01:04;;;;;;;;;;;27.40;93.90;;;;;;5103966;28;20198;-49
2021/07/28 01:03:31;;;;;;;;;;;27.40;93.80;;;;;;5103242;28;19946;-44
2021/07/28 01:06:00;;;;;;;;;;;27.30;93.60;;;;;;5086726;28;20739;-46
2021/07/28 01:08:35;;;;;;;;;;;27.20;93.60;;;;;;5103076;28;19904;-48
2021/07/28 01:11:03;;;;;;;;;;;27.20;93.40;;;;;;5069694;28;19904;-52
2021/07/28 01:13:31;;;;;;;;;;;27.20;93.50;;;;;;5102830;28;19904;-54
2021/07/28 01:16:04;;;;;;;;;;;27.20;93.40;;;;;;5104357;28;19911;-44
2021/07/28 01:18:32;;;;;;;;;;;27.20;93.30;;;;;;5103397;28;19904;-47
2021/07/28 01:20:58;;;;;;;;;;;27.20;93.10;;;;;;5104282;28;19908;-44
2021/07/28 01:23:30;;;;;;;;;;;27.20;92.90;;;;;;5086250;28;19935;-48
2021/07/28 01:25:59;;;;;;;;;;;27.20;93.00;;;;;;5103473;28;19900;-46
2021/07/28 01:28:27;;;;;;;;;;;27.10;92.60;;;;;;5104192;28;20100;-51
2021/07/28 01:31:00;;;;;;;;;;;27.10;92.30;;;;;;5103017;28;19904;-46
2021/07/28 01:33:30;;;;;;;;;;;27.10;92.30;;;;;;5086490;28;19911;-48
2021/07/28 01:35:57;;;;;;;;;;;27.10;92.20;;;;;;5104192;28;20096;-45
2021/07/28 01:38:26;;;;;;;;;;;27.10;92.20;;;;;;5108403;28;19912;-44
2021/07/28 01:41:00;;;;;;;;;;;27.10;92.00;;;;;;5090256;28;19912;-50
2021/07/28 01:43:29;;;;;;;;;;;27.10;91.80;;;;;;5105544;28;19904;-47
2021/07/28 01:46:02;;;;;;;;;;;27.10;91.70;;;;;;5108314;28;20219;-47
2021/07/28 01:48:29;;;;;;;;;;;27.10;91.90;;;;;;5108201;28;19904;-44
2021/07/28 01:50:56;;;;;;;;;;;27.20;92.00;;;;;;5108085;28;19900;-46
2021/07/28 01:53:26;;;;;;;;;;;27.10;91.90;;;;;;5107988;28;20096;-47
2021/07/28 01:55:53;;;;;;;;;;;27.10;92.00;;;;;;5089696;28;19900;-45
2021/07/28 01:58:21;;;;;;;;;;;27.10;91.80;;;;;;5107975;28;19904;-51
2021/07/28 02:00:48;;;;;;;;;;;27.10;91.70;;;;;;5103861;28;19908;-46
2021/07/28 02:03:19;;;;;;;;;;;27.10;91.90;;;;;;5084689;28;19908;-46
2021/07/28 02:05:45;;;;;;;;;;;27.10;91.90;;;;;;5069471;28;19901;-42
2021/07/28 02:08:12;;;;;;;;;;;27.00;92.00;;;;;;5069862;28;20215;-47
2021/07/28 02:10:40;;;;;;;;;;;27.00;91.90;;;;;;5086962;28;19940;-47
2021/07/28 02:13:07;;;;;;;;;;;27.00;91.80;;;;;;5086952;28;19908;-43
2021/07/28 02:15:35;;;;;;;;;;;27.10;92.00;;;;;;5087315;28;19939;-44
2021/07/28 02:18:03;;;;;;;;;;;27.00;92.00;;;;;;5087764;28;19902;-42
2021/07/28 02:20:30;;;;;;;;;;;27.00;92.10;;;;;;5069386;28;19935;-42
2021/07/28 02:22:56;;;;;;;;;;;27.00;92.10;;;;;;5087768;28;19911;-45
2021/07/28 02:25:23;;;;;;;;;;;27.00;92.10;;;;;;5087121;28;19911;-49
2021/07/28 02:27:49;;;;;;;;;;;26.90;92.30;;;;;;5087519;28;20093;-44
2021/07/28 02:30:19;;;;;;;;;;;26.90;92.20;;;;;;5069261;28;20211;-51
2021/07/28 02:32:46;;;;;;;;;;;26.90;92.40;;;;;;5087354;28;19971;-43
2021/07/28 02:35:12;;;;;;;;;;;26.90;92.40;;;;;;5086711;28;19904;-47
2021/07/28 02:37:42;;;;;;;;;;;26.90;92.30;;;;;;5096551;28;19958;-46
2021/07/28 02:40:10;;;;;;;;;;;26.90;92.30;;;;;;5088676;28;20197;-51
2021/07/28 02:42:39;;;;;;;;;;;26.90;92.50;;;;;;5107371;28;19951;-44
2021/07/28 02:45:07;;;;;;;;;;;26.90;92.50;;;;;;5107156;28;19939;-45
2021/07/28 02:47:33;;;;;;;;;;;26.90;92.50;;;;;;5107209;28;19908;-51
2021/07/28 02:50:00;;;;;;;;;;;26.90;92.60;;;;;;5106532;28;19900;-53
2021/07/28 02:52:28;;;;;;;;;;;26.90;92.70;;;;;;5103804;28;19908;-47
2021/07/28 02:54:56;;;;;;;;;;;26.90;92.80;;;;;;5091321;28;19907;-44
2021/07/28 02:57:25;;;;;;;;;;;26.90;92.80;;;;;;5070149;28;20022;-46
2021/07/28 02:59:53;;;;;;;;;;;26.90;92.90;;;;;;5096312;28;19903;-46
2021/07/28 03:02:20;;;;;;;;;;;26.90;92.90;;;;;;5094849;28;19908;-44
2021/07/28 03:04:47;;;;;;;;;;;26.90;93.00;;;;;;5103283;28;20096;-44
2021/07/28 03:07:14;;;;;;;;;;;26.90;93.10;;;;;;5107113;28;20189;-43
2021/07/28 03:09:40;;;;;;;;;;;26.90;93.20;;;;;;5097344;28;20219;-42
2021/07/28 03:12:08;;;;;;;;;;;26.90;93.00;;;;;;5095029;28;19976;-51
2021/07/28 03:14:34;;;;;;;;;;;26.90;93.10;;;;;;5069985;28;20022;-47
2021/07/28 03:17:00;;;;;;;;;;;26.90;93.30;;;;;;5093714;28;19908;-46
2021/07/28 03:19:28;;;;;;;;;;;26.90;93.40;;;;;;5097570;28;19909;-42
2021/07/28 03:21:56;;;;;;;;;;;26.90;93.50;;;;;;5106673;28;20104;-44
2021/07/28 03:24:25;;;;;;;;;;;26.90;93.70;;;;;;5088238;28;19907;-44
2021/07/28 03:26:52;;;;;;;;;;;26.80;93.80;;;;;;5106635;28;19931;-43
2021/07/28 03:29:22;;;;;;;;;;;26.80;93.80;;;;;;5106077;28;19907;-46
2021/07/28 03:31:49;;;;;;;;;;;26.80;93.70;;;;;;5088145;28;19908;-45
2021/07/28 03:34:15;;;;;;;;;;;26.80;93.60;;;;;;5105833;28;19899;-47
2021/07/28 03:36:42;;;;;;;;;;;26.80;93.80;;;;;;5087810;28;19970;-45
2021/07/28 03:39:09;;;;;;;;;;;26.80;93.90;;;;;;5087764;28;20097;-46
2021/07/28 03:41:35;;;;;;;;;;;26.80;93.90;;;;;;5087710;28;20104;-46
2021/07/28 03:44:01;;;;;;;;;;;26.70;93.70;;;;;;5105915;28;19992;-42
2021/07/28 03:46:28;;;;;;;;;;;26.60;94.00;;;;;;5087807;28;19935;-43
2021/07/28 03:48:55;;;;;;;;;;;26.70;94.00;;;;;;5105553;28;19955;-42
2021/07/28 03:51:22;;;;;;;;;;;26.60;94.00;;;;;;5087899;28;20034;-47
2021/07/28 03:53:48;;;;;;;;;;;26.60;94.10;;;;;;5105600;28;19900;-46
2021/07/28 03:56:22;;;;;;;;;;;26.70;94.30;;;;;;5105621;28;19908;-42
2021/07/28 03:58:51;;;;;;;;;;;26.70;94.20;;;;;;5105075;28;20077;-43
2021/07/28 04:01:20;;;;;;;;;;;26.70;94.30;;;;;;5087941;28;19912;-42
2021/07/28 04:03:46;;;;;;;;;;;26.60;94.40;;;;;;5070610;28;19943;-45
2021/07/28 04:06:16;;;;;;;;;;;26.70;94.40;;;;;;5104470;28;19908;-43
2021/07/28 04:08:44;;;;;;;;;;;26.70;94.60;;;;;;5105408;28;19923;-47
2021/07/28 04:11:10;;;;;;;;;;;26.60;94.60;;;;;;5087633;28;19908;-44
2021/07/28 04:13:38;;;;;;;;;;;26.70;94.70;;;;;;5061550;28;19904;-42
2021/07/28 04:16:05;;;;;;;;;;;26.70;94.60;;;;;;5042935;28;20082;-44
2021/07/28 04:18:31;;;;;;;;;;;26.70;94.60;;;;;;5043179;28;20088;-46
2021/07/28 04:21:03;;;;;;;;;;;26.80;94.60;;;;;;5026614;28;19959;-44
2021/07/28 04:23:30;;;;;;;;;;;26.80;94.60;;;;;;5043181;28;19940;-46
2021/07/28 04:25:57;;;;;;;;;;;26.80;94.60;;;;;;5026456;28;19905;-45
2021/07/28 04:28:23;;;;;;;;;;;26.80;94.60;;;;;;5026553;28;20093;-46
2021/07/28 04:30:49;;;;;;;;;;;26.80;94.70;;;;;;5042940;28;19905;-43
2021/07/28 04:33:21;;;;;;;;;;;26.80;94.60;;;;;;5043166;28;20182;-53
2021/07/28 04:35:47;;;;;;;;;;;26.90;94.70;;;;;;5043053;28;20189;-42
2021/07/28 04:38:19;;;;;;;;;;;26.90;94.60;;;;;;5042953;28;19999;-42
2021/07/28 04:40:45;;;;;;;;;;;26.90;94.70;;;;;;5026350;28;20193;-43
2021/07/28 04:43:12;;;;;;;;;;;26.90;94.70;;;;;;5042968;28;19971;-41
2021/07/28 04:45:39;;;;;;;;;;;26.80;94.70;;;;;;5025786;28;19901;-42
2021/07/28 04:48:05;;;;;;;;;;;26.90;94.80;;;;;;5025961;28;19909;-42
2021/07/28 04:50:32;;;;;;;;;;;26.90;94.80;;;;;;5054788;28;19962;-44
2021/07/28 04:53:00;;;;;;;;;;;26.90;94.90;;;;;;5084704;28;19912;-42
2021/07/28 04:55:26;;;;;;;;;;;26.80;94.90;;;;;;5084405;28;19901;-42
2021/07/28 04:57:53;;;;;;;;;;;26.80;94.80;;;;;;5084892;28;19946;-45
2021/07/28 05:00:19;;;;;;;;;;;26.80;94.80;;;;;;5066115;28;19908;-44
2021/07/28 05:02:45;;;;;;;;;;;26.80;94.90;;;;;;5066483;28;19915;-44
2021/07/28 05:05:12;;;;;;;;;;;26.80;94.90;;;;;;5084371;28;19982;-42
2021/07/28 05:07:39;;;;;;;;;;;26.70;95.00;;;;;;5084509;28;19908;-46
2021/07/28 05:10:06;;;;;;;;;;;26.80;95.00;;;;;;5066012;28;20184;-46
2021/07/28 05:12:34;;;;;;;;;;;26.70;95.00;;;;;;5084128;28;19916;-45
2021/07/28 05:15:00;;;;;;;;;;;26.70;95.00;;;;;;5066278;28;20073;-43
2021/07/28 05:17:27;;;;;;;;;;;26.70;95.00;;;;;;5084079;28;19931;-42
2021/07/28 05:19:53;;;;;;;;;;;26.70;95.00;;;;;;5066043;28;19909;-45
2021/07/28 05:22:21;;;;;;;;;;;26.70;95.00;;;;;;5083745;28;19920;-43
2021/07/28 05:24:47;;;;;;;;;;;26.70;95.00;;;;;;5084144;28;19907;-49
2021/07/28 05:27:17;;;;;;;;;;;26.70;95.00;;;;;;5084391;28;20101;-42
2021/07/28 05:29:43;;;;;;;;;;;26.70;95.10;;;;;;5066612;28;20010;-43
2021/07/28 05:32:11;;;;;;;;;;;26.70;95.10;;;;;;5084435;28;19914;-51
2021/07/28 05:34:38;;;;;;;;;;;26.70;95.10;;;;;;5048923;28;19966;-46
2021/07/28 05:37:04;;;;;;;;;;;26.70;95.10;;;;;;5083369;28;19954;-45
2021/07/28 05:39:30;;;;;;;;;;;26.70;95.30;;;;;;5099656;28;19909;-47
2021/07/28 05:41:57;;;;;;;;;;;26.70;95.00;;;;;;5084262;28;19909;-43
2021/07/28 05:44:23;;;;;;;;;;;26.70;95.00;;;;;;5083897;28;20058;-44
2021/07/28 05:46:49;;;;;;;;;;;26.70;95.00;;;;;;5084302;28;19916;-43
2021/07/28 05:49:15;;;;;;;;;;;26.70;95.00;;;;;;5083599;28;19972;-50
2021/07/28 05:51:41;;;;;;;;;;;26.60;95.00;;;;;;5099540;28;19904;-46
2021/07/28 05:54:08;;;;;;;;;;;26.60;95.00;;;;;;5083737;28;19904;-46
2021/07/28 05:56:36;;;;;;;;;;;26.60;95.10;;;;;;5083462;28;19904;-48
2021/07/28 05:59:03;;;;;;;;;;;26.60;95.10;;;;;;5070901;28;19904;-50
2021/07/28 06:01:29;;;;;;;;;;;26.60;95.00;;;;;;5083804;28;19916;-46
2021/07/28 06:03:55;;;;;;;;;;;26.60;95.00;;;;;;5083511;28;19900;-42
2021/07/28 06:06:25;;;;;;;;;;;26.60;95.10;;;;;;5083739;28;19908;-51
2021/07/28 06:08:53;;;;;;;;;;;26.60;95.10;;;;;;5098242;28;20169;-47
2021/07/28 06:11:19;;;;;;;;;;;26.60;95.10;;;;;;5099928;28;19949;-43
2021/07/28 06:13:45;;;;;;;;;;;26.60;95.10;;;;;;5083260;28;19901;-46
2021/07/28 06:16:11;;;;;;;;;;;26.60;95.10;;;;;;5084205;28;20189;-42
2021/07/28 06:18:37;;;;;;;;;;;26.60;95.10;;;;;;5066194;28;19967;-46
2021/07/28 06:21:03;;;;;;;;;;;26.50;95.20;;;;;;5084078;28;19935;-47
2021/07/28 06:23:30;;;;;;;;;;;26.50;95.20;;;;;;5086812;28;19907;-47
2021/07/28 06:25:56;;;;;;;;;;;26.50;95.20;;;;;;5085225;28;19901;-44
2021/07/28 06:28:22;;;;;;;;;;;26.60;95.20;;;;;;5064278;28;20152;-46
2021/07/28 06:30:52;;;;;;;;;;;26.50;95.20;;;;;;5087546;28;19908;-44
2021/07/28 06:33:19;;;;;;;;;;;26.50;95.20;;;;;;5087479;28;19900;-43
2021/07/28 06:35:47;;;;;;;;;;;26.50;95.20;;;;;;5103248;28;19905;-45
2021/07/28 06:38:13;;;;;;;;;;;26.50;95.20;;;;;;5086850;28;19920;-46
2021/07/28 06:40:39;;;;;;;;;;;26.50;95.20;;;;;;5086820;28;19915;-45
2021/07/28 06:43:05;;;;;;;;;;;26.50;95.20;;;;;;5086981;28;19904;-44
2021/07/28 06:45:33;;;;;;;;;;;26.50;95.20;;;;;;5069071;28;20184;-49
2021/07/28 06:47:59;;;;;;;;;;;26.50;95.20;;;;;;5087209;28;20231;-45
2021/07/28 06:50:26;;;;;;;;;;;26.50;95.20;;;;;;5086696;28;19904;-44
2021/07/28 06:52:52;;;;;;;;;;;26.40;95.20;;;;;;5087086;28;20073;-42
2021/07/28 06:55:18;;;;;;;;;;;26.40;95.20;;;;;;5086673;28;19934;-43
2021/07/28 06:57:48;;;;;;;10.40;1.05;;;26.50;95.30;;;;;;5086901;28;20195;-47
2021/07/28 07:00:15;;;;;;;8.95;1.35;;;26.50;95.30;;;;;;5085921;28;20020;-47
2021/07/28 07:02:42;;;;;;;22.23;2.15;;;26.50;95.30;;;;;;5086023;28;20032;-46
2021/07/28 07:05:10;;;;;;;;;;;26.40;95.30;;;;;;5086509;28;20024;-44
2021/07/28 07:07:37;;;;;;;;;;;26.40;95.30;;;;;;5086455;28;20080;-42
2021/07/28 07:10:08;;;;;;;;;;;26.40;95.30;;;;;;5086417;28;19968;-42
2021/07/28 07:12:35;;;;;;;;;;;26.40;95.30;;;;;;5086769;28;19911;-47
2021/07/28 07:15:05;;;;;;;;;;;26.40;95.20;;;;;;5086211;28;19904;-49
2021/07/28 07:17:31;;;;;;;;;;;26.40;95.30;;;;;;5086446;28;20220;-46
2021/07/28 07:19:57;;;;;;;;;;;26.40;95.30;;;;;;5086139;28;19904;-48
2021/07/28 07:22:26;;;;;;;;;;;26.40;95.40;;;;;;5086376;28;19915;-45
2021/07/28 07:24:53;;;;;;;;;;;26.40;95.40;;;;;;5085070;28;19905;-43
2021/07/28 07:27:20;;;;;;;;;;;26.30;95.40;;;;;;5086342;28;20089;-46
2021/07/28 07:29:48;;;;;;;;;;;26.40;95.40;;;;;;5085943;28;20146;-46
2021/07/28 07:32:19;;;;;;;;;;;26.40;95.40;;;;;;5086238;28;19908;-45
2021/07/28 07:34:45;;;;;;;;;;;26.40;95.40;;;;;;5084747;28;19936;-45
2021/07/28 07:37:12;;;;;;;;;;;26.40;95.40;;;;;;5091443;28;19912;-46
2021/07/28 07:39:38;;;;;;;;;;;26.40;95.40;;;;;;5105521;28;20053;-44
2021/07/28 07:42:07;;;;;;;;;;;26.40;95.40;;;;;;5106327;28;19908;-45
2021/07/28 07:44:36;;;;;;;;;;;26.30;95.40;;;;;;5105944;28;20137;-47
2021/07/28 07:47:03;;;;;;;;;;;26.30;95.40;;;;;;5106180;28;19975;-45
2021/07/28 07:49:29;;;;;;;;;;;26.30;95.50;;;;;;5104841;28;19974;-51
2021/07/28 07:51:55;;;;;;;;;;;26.30;95.60;;;;;;5105860;28;19912;-50
2021/07/28 07:54:21;;;;;;;;;;;26.30;95.50;;;;;;5105815;28;19961;-53
2021/07/28 07:56:50;;;;;;;;;;;26.30;95.50;;;;;;5105923;28;19927;-47
2021/07/28 07:59:16;;;;;;;;;;;26.30;95.40;;;;;;5104898;28;19900;-54
2021/07/28 08:01:44;;;;;;;;;;;26.30;95.40;;;;;;5106176;28;19908;-45
2021/07/28 08:04:10;;;;;;;;;;;26.30;95.40;;;;;;5105617;28;19971;-45
2021/07/28 08:06:37;;;;;;;;;;;26.30;95.50;;;;;;5105593;28;19939;-45
2021/07/28 08:09:05;;;;;;;;;;;26.30;95.50;;;;;;5104412;28;19911;-49
2021/07/28 08:11:32;;;;;;;;;;;26.30;95.50;;;;;;5105657;28;19915;-46
2021/07/28 08:13:58;;;;;;;;;;;26.30;95.50;;;;;;5105164;28;20148;-50
2021/07/28 08:16:24;;;;;;;;;;;26.30;95.50;;;;;;5105590;28;20085;-46
2021/07/28 08:18:51;;;;;;;;;;;26.30;95.60;;;;;;5087414;28;20185;-53
2021/07/28 08:21:19;;;;;;;;;;;26.30;95.50;;;;;;5105236;28;19912;-42
2021/07/28 08:23:46;;;;;;;;;;;26.30;95.50;;;;;;5105282;28;19900;-50
2021/07/28 08:26:13;;;;;;;;;;;26.30;95.50;;;;;;5087236;28;19912;-44
2021/07/28 08:28:39;;;;;;;;;;;26.30;95.60;;;;;;5104978;28;20092;-48
2021/07/28 08:31:06;;;;;;;;;;;26.30;95.60;;;;;;5105121;28;19908;-48
2021/07/28 08:33:32;;;;;;;;;;;26.30;95.60;;;;;;5105142;28;19900;-47
2021/07/28 08:36:02;;;;;;;;;;;26.30;95.60;;;;;;5104711;28;19920;-47
2021/07/28 08:38:28;;;;;;;;;;;26.30;95.50;;;;;;5104775;28;20262;-50
2021/07/28 08:41:00;;;;;;;;;;;26.30;95.60;;;;;;5104850;28;19908;-52
2021/07/28 08:43:31;;;;;;;;;;;26.20;95.60;;;;;;5104729;28;20209;-48
2021/07/28 08:45:59;;;;;;;;;;;26.20;95.60;;;;;;5104810;28;20027;-49
2021/07/28 08:48:25;;;;;;;;;;;26.20;95.60;;;;;;5103435;28;20262;-49
2021/07/28 08:50:55;;;;;;;;;;;26.20;95.60;;;;;;5104924;28;19907;-43
2021/07/28 08:53:21;;;;;;;;;;;26.20;95.60;;;;;;5104703;28;19942;-43
2021/07/28 08:55:52;;;;;;;;;;;26.20;95.60;;;;;;5104774;28;19900;-48
2021/07/28 08:58:20;;;;;;;;;;;26.20;95.60;;;;;;5104733;28;19900;-47
2021/07/28 09:00:47;;;;;;;;;;;26.20;95.60;;;;;;5104629;28;19992;-46
2021/07/28 09:03:14;;;;;;;;;;;26.20;95.60;;;;;;5086479;28;20073;-42
2021/07/28 09:05:40;;;;;;;;;;;26.20;95.70;;;;;;5104614;28;19971;-47
2021/07/28 09:08:28;;;;;;;;;;;26.20;95.60;;;;;;5104762;28;19908;-44
2021/07/28 09:10:55;;;;;;;;;;;26.10;95.60;;;;;;5104308;28;19927;-45
2021/07/28 09:13:40;;;;;;;;;;;26.20;95.70;;;;;;5104549;28;19966;-48
2021/07/28 09:16:07;;;;;;;;;;;26.10;95.70;;;;;;5104669;28;19911;-50
2021/07/28 09:18:47;;;;;;;;;;;26.20;95.80;;;;;;5104467;28;20208;-45
2021/07/28 09:21:19;;;;;;;;;;;26.10;95.70;;;;;;5104235;28;19912;-51
2021/07/28 09:23:46;;;;;;;;;;;26.10;95.70;;;;;;5104535;28;19900;-43
2021/07/28 09:26:32;;;;;;;;;;;26.20;95.70;;;;;;5104507;28;20274;-50
2021/07/28 09:29:03;;;;;;;;;;;26.10;95.70;;;;;;5104319;28;19971;-42
2021/07/28 09:31:33;;;;;;;;;;;26.10;95.70;;;;;;5104519;28;20077;-43
2021/07/28 09:34:09;;;;;;;;;;;26.10;95.70;;;;;;5104179;28;20092;-44
2021/07/28 09:36:35;;;;;;;;;;;26.10;95.70;;;;;;5104087;28;19915;-42
2021/07/28 09:39:04;;;;;;;;;;;26.10;95.80;;;;;;5103952;28;19900;-48
2021/07/28 09:41:37;;;;;;;;;;;26.10;95.80;;;;;;5104419;28;19975;-45
2021/07/28 09:44:03;;;;;;;;;;;26.10;95.80;;;;;;5085954;28;19907;-42
2021/07/28 09:46:29;;;;;;;;;;;26.10;95.90;;;;;;5104122;28;19908;-43
2021/07/28 09:48:59;;;;;;;;;;;26.10;96.10;;;;;;5104041;28;20188;-49
2021/07/28 09:51:28;;;;;;;;;;;26.10;95.90;;;;;;5103018;28;19907;-44
2021/07/28 09:53:58;;;;;;;;;;;26.10;95.90;;;;;;5103498;28;19931;-42
2021/07/28 09:56:30;;;;;;;;;;;26.10;95.90;;;;;;5104377;28;19927;-49
2021/07/28 09:58:59;;;;;;;;;;;26.10;95.90;;;;;;5107888;28;19911;-43
2021/07/28 10:01:27;;;;;;;;;;;26.10;96.10;;;;;;5107978;28;20024;-43
2021/07/28 10:03:54;;;;;;;;;;;26.10;95.90;;;;;;5108225;28;20120;-43
2021/07/28 10:06:22;;;;;;;;;;;26.10;95.90;;;;;;5107791;28;19908;-49
2021/07/28 10:08:52;;;;;;;;;;;26.10;95.90;;;;;;5108077;28;19967;-45
2021/07/28 10:11:22;;;;;;;;;;;26.10;95.90;;;;;;5107777;28;19950;-52
2021/07/28 10:13:48;;;;;;;;;;;26.10;95.90;;;;;;5107614;28;20061;-45
2021/07/28 10:16:16;;;;;;;;;;;26.10;95.90;;;;;;5107014;28;19947;-45
2021/07/28 10:18:44;;;;;;;;;;;26.10;96.00;;;;;;5107774;28;20196;-43
2021/07/28 10:21:10;;;;;;;;;;;26.00;95.90;;;;;;5107464;28;19911;-46
2021/07/28 10:23:37;;;;;;;;;;;26.00;96.00;;;;;;5107522;28;19922;-49
2021/07/28 10:26:05;;;;;;;;;;;26.00;96.00;;;;;;5107604;28;20085;-46
2021/07/28 10:28:32;;;;;;;;;;;26.00;96.00;;;;;;5107528;28;19946;-46
2021/07/28 10:31:12;;;;;;;;;;;26.10;96.10;;;;;;5107451;28;20198;-43
2021/07/28 10:33:45;;;;;;;;;;;26.00;96.10;;;;;;5107813;28;20087;-46
2021/07/28 10:36:12;;;;;;;;;;;26.00;96.10;;;;;;5089458;28;19926;-47
2021/07/28 10:38:53;;;;;;;;;;;26.00;96.10;;;;;;5106974;28;20245;-43
2021/07/28 10:41:42;;;;;;;;;;;26.00;96.20;;;;;;5107136;28;19923;-53
2021/07/28 10:44:10;;;;;;;;;;;26.00;96.10;;;;;;5107197;28;19900;-50
2021/07/28 10:46:55;;;;;;;;;;;26.00;96.10;;;;;;5107266;28;19931;-45
2021/07/28 10:49:38;;;;;;;;;;;26.00;96.10;;;;;;5107056;28;19941;-45
2021/07/28 10:52:13;;;;;;;;;;;26.00;96.20;;;;;;5107344;28;19904;-42
2021/07/28 10:54:49;;;;;;;;;;;26.00;96.20;;;;;;5106938;28;19979;-48
2021/07/28 10:57:54;;;;;;;;;;;26.00;96.10;;;;;;5107463;28;19904;-44
2021/07/28 11:00:38;;;;;;;;;;;26.00;96.20;;;;;;5106208;28;20172;-51
2021/07/28 11:03:07;;;;;;;;;;;26.00;96.20;;;;;;5106833;28;19908;-53
2021/07/28 11:05:37;;;;;;;;;;;26.00;96.20;;;;;;5106689;28;19935;-50
2021/07/28 11:08:04;;;;;;;;;;;26.00;96.20;;;;;;5106879;28;19908;-51
2021/07/28 11:10:37;;;;;;;;;;;26.00;96.20;;;;;;5106847;28;19900;-51
2021/07/28 11:13:11;;;;;;;;;;;26.00;96.30;;;;;;5106962;28;19915;-43
2021/07/28 11:15:38;;;;;;;;;;;26.00;96.20;;;;;;5106675;28;19907;-48
2021/07/28 11:18:04;;;;;;;;;;;26.00;96.30;;;;;;5106568;28;19953;-44
2021/07/28 11:20:30;;;;;;;;;;;26.00;96.30;;;;;;5106618;28;20125;-42
2021/07/28 11:23:15;;;;;;;;;;;26.00;96.30;;;;;;5107058;28;19931;-44
2021/07/28 11:25:41;;;;;;;;;;;26.00;96.30;;;;;;5121817;28;19904;-48
2021/07/28 11:28:08;;;;;;;;;;;26.00;96.30;;;;;;5098273;28;19935;-44
2021/07/28 11:30:35;;;;;;;;;;;26.00;96.30;;;;;;5106261;28;20073;-47
2021/07/28 11:33:14;;;;;;;;;;;26.00;96.30;;;;;;5106775;28;19911;-43
2021/07/28 11:35:44;;;;;;;;;;;26.00;96.20;;;;;;5122128;28;19911;-45
2021/07/28 11:38:20;;;;;;;;;;;26.00;96.30;;;;;;5106091;28;19961;-45
2021/07/28 11:40:47;;;;;;;;;;;26.00;96.30;;;;;;5106238;28;19912;-43
2021/07/28 11:43:29;;;;;;;;;;;26.00;96.30;;;;;;5105928;28;19979;-46
2021/07/28 11:45:58;;;;;;;;;;;26.00;96.30;;;;;;5103730;28;20069;-42
2021/07/28 11:48:33;;;;;;;;;;;26.00;96.30;;;;;;5100612;28;19942;-47
2021/07/28 11:51:03;;;;;;;;;;;26.00;96.30;;;;;;5105862;28;19908;-46
2021/07/28 11:53:30;;;;;;;;;;;26.00;96.30;;;;;;5105804;28;20207;-48
2021/07/28 11:56:16;;;;;;;;;;;26.00;96.40;;;;;;5121606;28;19904;-41
2021/07/28 11:58:44;;;;;;;;;;;26.10;96.40;;;;;;5105465;28;19970;-43
2021/07/28 12:01:29;;;;;;;;;;;26.10;96.40;;;;;;5105666;28;19950;-41
2021/07/28 12:04:08;;;;;;;;;;;26.10;96.50;;;;;;5105767;28;20105;-46
2021/07/28 12:06:39;;;;;;;;;;;26.10;96.50;;;;;;5105439;28;19911;-48
2021/07/28 12:09:17;;;;;;;;;;;26.10;96.50;;;;;;5105681;28;19911;-49
2021/07/28 12:11:46;;;;;;;;;;;26.10;96.50;;;;;;5105527;28;19963;-44
2021/07/28 12:14:41;;;;;;;;;;;26.10;96.50;;;;;;5104917;28;20192;-41
2021/07/28 12:17:08;;;;;;;;;;;26.10;96.50;;;;;;5092745;28;19967;-47
2021/07/28 12:19:39;;;;;;;;;;;26.10;96.50;;;;;;5105013;28;19912;-42
2021/07/28 12:22:09;;;;;;;;;;;26.10;96.60;;;;;;5105210;28;19911;-46
2021/07/28 12:24:48;;;;;;;;;;;26.20;96.70;;;;;;5086921;28;19904;-46
2021/07/28 12:27:20;;;;;;;;;;;26.10;97.30;;;;;;5105608;28;19992;-49
2021/07/28 12:30:01;;;;;;;;;;;26.00;97.60;;;;;;5104440;28;19939;-40
2021/07/28 12:32:38;;;;;;;;;;;26.00;97.70;;;;;;5087266;28;19904;-40
2021/07/28 12:35:05;;;;;;;;;;;26.00;97.60;;;;;;5105303;28;19988;-44
2021/07/28 12:37:31;;;;;;;;;;;26.00;97.90;;;;;;5104945;28;19908;-49
2021/07/28 12:39:59;;;;;;;;;;;26.00;97.70;;;;;;5104637;28;19920;-44
2021/07/28 12:42:25;;;;;;;;;;;26.00;98.00;;;;;;5104897;28;20176;-43
2021/07/28 12:44:51;;;;;;;;;;;26.00;97.90;;;;;;5104437;28;20088;-46
2021/07/28 12:47:18;;;;;;;;;;;26.00;97.80;;;;;;5105042;28;19968;-44
2021/07/28 12:49:45;;;;;;;;;;;26.00;98.20;;;;;;5104325;28;19962;-42
2021/07/28 12:52:11;;;;;;;;;;;26.00;98.20;;;;;;5064357;28;20238;-47
2021/07/28 12:54:37;;;;;;;;;;;26.00;98.00;;;;;;5090710;28;19904;-42
2021/07/28 12:57:03;;;;;;;;;;;26.00;98.20;;;;;;5097474;28;19939;-40
2021/07/28 12:59:29;;;;;;;;;;;26.00;98.50;;;;;;5073934;28;19983;-42
2021/07/28 13:01:58;;;;;;;;;;;26.00;98.80;;;;;;5098832;28;19908;-48
2021/07/28 13:04:27;;;;;;;;;;;26.00;98.70;;;;;;5103605;28;19919;-42
2021/07/28 13:07:00;;;;;;;;;;;26.00;98.70;;;;;;5100694;28;19907;-52
2021/07/28 13:09:27;;;;;;;;;;;26.10;98.50;;;;;;5101570;28;20180;-50
2021/07/28 13:11:53;;;;;;;;;;;26.10;98.30;;;;;;5096949;28;19923;-47
2021/07/28 13:14:19;;;;;;;;;;;26.20;97.90;;;;;;5101736;28;19904;-48
2021/07/28 13:16:45;;;;;;;;;;;26.20;97.30;;;;;;5098360;28;19908;-43
2021/07/28 13:19:15;;;;;;;;;;;26.10;97.10;;;;;;5094669;28;20207;-43
2021/07/28 13:21:41;;;;;;;;;;;26.10;96.90;;;;;;5092510;28;19911;-41
2021/07/28 13:24:07;;;;;;;;;;;26.10;96.70;;;;;;5079666;28;19908;-42
2021/07/28 13:26:33;;;;;;;;;;;26.20;96.90;;;;;;5099154;28;19950;-50
2021/07/28 13:29:00;;;;;;;;;;;26.20;97.10;;;;;;5097047;28;19927;-47
2021/07/28 13:31:27;;;;;;;;;;;26.20;96.90;;;;;;5096882;28;19915;-45
2021/07/28 13:33:53;;;;;;;;;;;26.20;96.40;;;;;;5103112;28;19910;-41
2021/07/28 13:36:21;;;;;;;;;;;26.20;96.40;;;;;;5103738;28;19976;-47
2021/07/28 13:38:48;;;;;;;;;;;26.20;96.40;;;;;;5090029;28;19919;-41
2021/07/28 13:41:14;;;;;;;;;;;26.20;96.50;;;;;;5104531;28;19979;-50
2021/07/28 13:43:41;;;;;;;;;;;26.20;96.60;;;;;;5108437;28;19927;-41
2021/07/28 13:46:09;;;;;;;;;;;26.20;96.70;;;;;;5104240;28;19936;-42
2021/07/28 13:48:37;;;;;;;;;;;26.30;96.40;;;;;;5086450;28;19910;-45
2021/07/28 13:51:05;;;;;;;;;;;26.40;96.50;;;;;;5090289;28;19975;-47
2021/07/28 13:53:31;;;;;;;;;;;26.40;96.30;;;;;;5090257;28;19908;-45
2021/07/28 13:55:57;;;;;;;;;;;26.40;95.50;;;;;;5108008;28;20211;-45
2021/07/28 13:58:23;;;;;;;;;;;26.50;95.40;;;;;;5107029;28;20204;-42
2021/07/28 14:00:50;;;;;;;;;;;26.50;95.40;;;;;;5108111;28;19910;-46
2021/07/28 14:03:17;;;;;;;;;;;26.50;94.90;;;;;;5107894;28;20152;-43
2021/07/28 14:05:43;;;;;;;;;;;26.50;95.10;;;;;;5107680;28;19935;-44
2021/07/28 14:08:09;;;;;;;;;;;26.50;95.10;;;;;;5107238;28;19983;-42
2021/07/28 14:10:35;;;;;;;;;;;26.50;95.20;;;;;;5089326;28;19900;-42
2021/07/28 14:13:01;;;;;;;;;;;26.60;95.20;;;;;;5088695;28;20211;-41
2021/07/28 14:15:29;;;;;;;;;;;26.60;95.20;;;;;;5095676;28;20213;-44
2021/07/28 14:17:55;;;;;;;;;;;26.60;95.50;;;;;;5091745;28;19923;-45
2021/07/28 14:20:22;;;;;;;;;;;26.60;95.10;;;;;;5084894;28;19911;-46
2021/07/28 14:22:48;;;;;;;;;;;26.60;95.20;;;;;;5105649;28;19919;-45
2021/07/28 14:25:16;;;;;;;;;;;26.70;94.80;;;;;;5089195;28;19907;-47
2021/07/28 14:27:42;;;;;;;;;;;26.70;94.30;;;;;;5107041;28;20165;-49
2021/07/28 14:30:09;;;;;;;;;;;26.80;94.40;;;;;;5107230;28;19904;-49